sensor_id;sensor_type;location;lat;lon;timestamp;pressure;altitude;pressure_sealevel;temperature;humidity
50087;BME280;35967;50.718;7.050;2023-03-11T00:09:02;99814.28;;;2.01;87.88
50087;BME280;35967;50.718;7.050;2023-03-11T00:19:08;99817.66;;;2.04;86.60
50087;BME280;35967;50.718;7.050;2023-03-11T00:29:12;99832.06;;;2.01;86.43
50087;BME280;35967;50.718;7.050;2023-03-11T00:39:16;99850.66;;;1.95;85.82
50087;BME280;35967;50.718;7.050;2023-03-11T00:49:19;99862.53;;;1.95;85.87
50087;BME280;35967;50.718;7.050;2023-03-11T00:59:25;99870.97;;;1.89;86.22
50087;BME280;35967;50.718;7.050;2023-03-11T01:09:27;99885.34;;;1.90;87.50
50087;BME280;35967;50.718;7.050;2023-03-11T01:19:56;99887.03;;;1.89;86.52
50087;BME280;35967;50.718;7.050;2023-03-11T01:29:59;99903.13;;;1.79;85.89
50087;BME280;35967;50.718;7.050;2023-03-11T01:40:07;99909.88;;;1.77;84.92
50087;BME280;35967;50.718;7.050;2023-03-11T01:50:11;99901.41;;;1.91;84.23
50087;BME280;35967;50.718;7.050;2023-03-11T02:00:17;99908.19;;;1.79;83.46
50087;BME280;35967;50.718;7.050;2023-03-11T02:10:22;99922.56;;;1.76;82.90
50087;BME280;35967;50.718;7.050;2023-03-11T02:20:34;99919.16;;;1.77;81.99
50087;BME280;35967;50.718;7.050;2023-03-11T02:30:47;99925.97;;;1.90;81.99
50087;BME280;35967;50.718;7.050;2023-03-11T02:41:13;99931.00;;;1.71;81.52
50087;BME280;35967;50.718;7.050;2023-03-11T02:51:19;99945.34;;;1.60;79.53
50087;BME280;35967;50.718;7.050;2023-03-11T03:01:24;99958.88;;;1.59;79.80
50087;BME280;35967;50.718;7.050;2023-03-11T03:11:28;99952.97;;;1.65;79.27
50087;BME280;35967;50.718;7.050;2023-03-11T03:21:32;99948.69;;;1.53;78.53
50087;BME280;35967;50.718;7.050;2023-03-11T03:31:38;99950.44;;;1.60;77.98
50087;BME280;35967;50.718;7.050;2023-03-11T03:41:42;99966.41;;;1.39;77.36
50087;BME280;35967;50.718;7.050;2023-03-11T03:51:47;99979.16;;;1.59;78.09
50087;BME280;35967;50.718;7.050;2023-03-11T04:01:58;99986.59;;;1.19;77.75
50087;BME280;35967;50.718;7.050;2023-03-11T04:12:05;100000.94;;;1.17;78.92
50087;BME280;35967;50.718;7.050;2023-03-11T04:22:10;99996.72;;;1.17;79.72
50087;BME280;35967;50.718;7.050;2023-03-11T04:32:15;100016.81;;;0.89;80.80
50087;BME280;35967;50.718;7.050;2023-03-11T04:42:19;100027.97;;;1.15;80.11
50087;BME280;35967;50.718;7.050;2023-03-11T04:52:24;100043.94;;;1.00;81.74
50087;BME280;35967;50.718;7.050;2023-03-11T05:02:28;100027.16;;;1.20;81.51
50087;BME280;35967;50.718;7.050;2023-03-11T05:12:36;100033.91;;;1.15;80.98
50087;BME280;35967;50.718;7.050;2023-03-11T05:22:40;100041.47;;;1.12;81.12
50087;BME280;35967;50.718;7.050;2023-03-11T05:32:46;100061.69;;;1.03;81.26
50087;BME280;35967;50.718;7.050;2023-03-11T05:42:50;100071.63;;;0.78;80.94
50087;BME280;35967;50.718;7.050;2023-03-11T05:52:55;100080.97;;;0.85;80.99
50087;BME280;35967;50.718;7.050;2023-03-11T06:03:02;100086.00;;;0.77;80.88
50087;BME280;35967;50.718;7.050;2023-03-11T06:13:07;100091.97;;;0.87;80.16
50087;BME280;35967;50.718;7.050;2023-03-11T06:23:20;100098.91;;;1.08;79.77
50087;BME280;35967;50.718;7.050;2023-03-11T06:33:26;100111.78;;;1.38;78.84
50087;BME280;35967;50.718;7.050;2023-03-11T06:43:30;100123.78;;;1.67;77.82
50087;BME280;35967;50.718;7.050;2023-03-11T06:53:35;100134.91;;;1.91;77.03
50087;BME280;35967;50.718;7.050;2023-03-11T07:03:39;100160.16;;;1.66;77.26
50087;BME280;35967;50.718;7.050;2023-03-11T07:13:44;100175.38;;;1.64;77.95
50087;BME280;35967;50.718;7.050;2023-03-11T07:23:51;100191.56;;;1.83;78.33
50087;BME280;35967;50.718;7.050;2023-03-11T07:33:57;100225.31;;;1.73;78.60
50087;BME280;35967;50.718;7.050;2023-03-11T07:44:02;100226.97;;;1.66;79.61
50087;BME280;35967;50.718;7.050;2023-03-11T07:54:09;100244.09;;;1.94;78.90
50087;BME280;35967;50.718;7.050;2023-03-11T08:04:14;100262.91;;;2.30;77.73
50087;BME280;35967;50.718;7.050;2023-03-11T08:14:20;100272.28;;;2.42;76.09
50087;BME280;35967;50.718;7.050;2023-03-11T08:24:23;100269.88;;;2.76;74.46
50087;BME280;35967;50.718;7.050;2023-03-11T08:34:27;100263.19;;;3.03;74.37
50087;BME280;35967;50.718;7.050;2023-03-11T08:44:30;100275.97;;;3.40;74.54
50087;BME280;35967;50.718;7.050;2023-03-11T08:54:35;100276.84;;;3.51;73.15
50087;BME280;35967;50.718;7.050;2023-03-11T09:04:39;100293.78;;;3.61;70.68
50087;BME280;35967;50.718;7.050;2023-03-11T09:14:43;100282.75;;;4.01;67.91
50087;BME280;35967;50.718;7.050;2023-03-11T09:24:46;100277.66;;;4.03;68.08
50087;BME280;35967;50.718;7.050;2023-03-11T09:34:51;100277.66;;;4.06;62.85
50087;BME280;35967;50.718;7.050;2023-03-11T09:45:00;100285.28;;;3.98;66.19
50087;BME280;35967;50.718;7.050;2023-03-11T10:06:52;100319.25;;;3.61;65.41
50087;BME280;35967;50.718;7.050;2023-03-11T10:17:04;100330.28;;;3.99;55.88
50087;BME280;35967;50.718;7.050;2023-03-11T10:27:15;100330.19;;;4.67;54.56
50087;BME280;35967;50.718;7.050;2023-03-11T10:37:24;100336.19;;;4.51;53.77
50087;BME280;35967;50.718;7.050;2023-03-11T10:47:47;100350.63;;;4.30;56.16
50087;BME280;35967;50.718;7.050;2023-03-11T10:58:03;100340.19;;;5.18;59.08
50087;BME280;35967;50.718;7.050;2023-03-11T11:08:10;100333.66;;;4.32;57.17
50087;BME280;35967;50.718;7.050;2023-03-11T11:18:18;100334.47;;;4.50;56.24
50087;BME280;35967;50.718;7.050;2023-03-11T11:28:22;100309.84;;;4.56;56.10
50087;BME280;35967;50.718;7.050;2023-03-11T11:38:29;100314.06;;;4.51;53.80
50087;BME280;35967;50.718;7.050;2023-03-11T11:48:39;100327.47;;;5.01;53.40
50087;BME280;35967;50.718;7.050;2023-03-11T11:58:49;100331.06;;;4.57;51.62
50087;BME280;35967;50.718;7.050;2023-03-11T12:09:00;100332.66;;;4.92;49.73
50087;BME280;35967;50.718;7.050;2023-03-11T12:19:16;100323.38;;;4.68;51.39
50087;BME280;35967;50.718;7.050;2023-03-11T12:29:23;100335.84;;;5.31;55.28
50087;BME280;35967;50.718;7.050;2023-03-11T12:39:31;100326.50;;;5.27;48.79
50087;BME280;35967;50.718;7.050;2023-03-11T12:49:36;100318.84;;;5.30;49.35
50087;BME280;35967;50.718;7.050;2023-03-11T13:10:16;100318.09;;;5.10;47.54
50087;BME280;35967;50.718;7.050;2023-03-11T13:20:43;100327.31;;;5.35;51.73
50087;BME280;35967;50.718;7.050;2023-03-11T13:30:52;100315.00;;;5.93;49.67
50087;BME280;35967;50.718;7.050;2023-03-11T13:40:59;100316.16;;;5.50;46.49
50087;BME280;35967;50.718;7.050;2023-03-11T13:51:06;100328.47;;;6.12;47.03
50087;BME280;35967;50.718;7.050;2023-03-11T14:01:17;100324.97;;;6.24;45.27
50087;BME280;35967;50.718;7.050;2023-03-11T14:11:24;100312.69;;;7.26;45.25
50087;BME280;35967;50.718;7.050;2023-03-11T14:21:32;100306.78;;;7.19;45.68
50087;BME280;35967;50.718;7.050;2023-03-11T14:31:36;100313.22;;;6.86;44.81
50087;BME280;35967;50.718;7.050;2023-03-11T14:41:41;100334.38;;;6.19;48.12
50087;BME280;35967;50.718;7.050;2023-03-11T14:51:44;100342.28;;;5.88;49.07
50087;BME280;35967;50.718;7.050;2023-03-11T15:01:52;100341.72;;;5.43;47.90
50087;BME280;35967;50.718;7.050;2023-03-11T15:11:58;100348.38;;;5.65;47.73
50087;BME280;35967;50.718;7.050;2023-03-11T15:22:22;100352.69;;;5.60;49.14
50087;BME280;35967;50.718;7.050;2023-03-11T15:32:38;100350.13;;;5.60;49.27
50087;BME280;35967;50.718;7.050;2023-03-11T15:42:43;100352.66;;;5.62;49.76
50087;BME280;35967;50.718;7.050;2023-03-11T15:52:46;100352.69;;;5.60;49.67
50087;BME280;35967;50.718;7.050;2023-03-11T16:02:51;100363.00;;;5.45;49.26
50087;BME280;35967;50.718;7.050;2023-03-11T16:12:55;100356.22;;;5.42;49.43
50087;BME280;35967;50.718;7.050;2023-03-11T16:23:00;100352.78;;;5.45;49.12
50087;BME280;35967;50.718;7.050;2023-03-11T16:33:03;100358.88;;;5.22;48.91
50087;BME280;35967;50.718;7.050;2023-03-11T16:43:10;100363.09;;;5.25;49.71
50087;BME280;35967;50.718;7.050;2023-03-11T16:53:13;100369.97;;;5.12;49.27
50087;BME280;35967;50.718;7.050;2023-03-11T17:03:20;100364.91;;;5.09;48.93
50087;BME280;35967;50.718;7.050;2023-03-11T17:13:23;100364.91;;;5.09;49.38
50087;BME280;35967;50.718;7.050;2023-03-11T17:23:28;100383.59;;;5.01;51.10
50087;BME280;35967;50.718;7.050;2023-03-11T17:33:31;100383.66;;;4.89;51.83
50087;BME280;35967;50.718;7.050;2023-03-11T17:43:37;100396.47;;;4.66;56.39
50087;BME280;35967;50.718;7.050;2023-03-11T17:53:42;100407.53;;;4.48;55.02
50087;BME280;35967;50.718;7.050;2023-03-11T18:03:48;100406.69;;;4.41;57.14
50087;BME280;35967;50.718;7.050;2023-03-11T18:13:51;100410.13;;;4.26;57.30
50087;BME280;35967;50.718;7.050;2023-03-11T18:23:57;100410.09;;;4.06;58.28
50087;BME280;35967;50.718;7.050;2023-03-11T18:34:02;100411.78;;;3.93;57.74
50087;BME280;35967;50.718;7.050;2023-03-11T18:44:06;100416.91;;;4.07;59.77
50087;BME280;35967;50.718;7.050;2023-03-11T18:54:10;100425.31;;;3.72;62.04
50087;BME280;35967;50.718;7.050;2023-03-11T19:04:14;100428.72;;;3.75;62.10
50087;BME280;35967;50.718;7.050;2023-03-11T19:14:17;100421.03;;;3.54;60.18
50087;BME280;35967;50.718;7.050;2023-03-11T19:24:21;100435.44;;;3.53;63.17
50087;BME280;35967;50.718;7.050;2023-03-11T19:34:24;100448.06;;;3.21;64.49
50087;BME280;35967;50.718;7.050;2023-03-11T19:44:31;100451.47;;;3.29;63.93
50087;BME280;35967;50.718;7.050;2023-03-11T19:54:34;100466.66;;;3.09;62.23
50087;BME280;35967;50.718;7.050;2023-03-11T20:04:39;100469.22;;;3.15;63.93
50087;BME280;35967;50.718;7.050;2023-03-11T20:14:44;100476.72;;;2.95;64.73
50087;BME280;35967;50.718;7.050;2023-03-11T20:24:49;100472.41;;;2.83;62.89
50087;BME280;35967;50.718;7.050;2023-03-11T20:34:53;100464.25;;;3.46;69.40
50087;BME280;35967;50.718;7.050;2023-03-11T20:44:58;100471.41;;;2.61;65.81
50087;BME280;35967;50.718;7.050;2023-03-11T20:55:02;100484.84;;;2.44;64.15
50087;BME280;35967;50.718;7.050;2023-03-11T21:05:08;100483.84;;;2.27;63.92
50087;BME280;35967;50.718;7.050;2023-03-11T21:15:11;100477.91;;;2.25;64.15
50087;BME280;35967;50.718;7.050;2023-03-11T21:25:16;100472.78;;;2.21;65.74
50087;BME280;35967;50.718;7.050;2023-03-11T21:35:24;100465.06;;;2.11;65.96
50087;BME280;35967;50.718;7.050;2023-03-11T21:45:29;100460.72;;;1.96;67.06
50087;BME280;35967;50.718;7.050;2023-03-11T21:55:33;100459.00;;;1.96;68.12
50087;BME280;35967;50.718;7.050;2023-03-11T22:05:38;100460.56;;;1.83;69.08
50087;BME280;35967;50.718;7.050;2023-03-11T22:15:44;100449.69;;;1.95;70.64
50087;BME280;35967;50.718;7.050;2023-03-11T22:25:49;100443.66;;;1.84;69.28
50087;BME280;35967;50.718;7.050;2023-03-11T22:35:54;100435.06;;;1.72;71.62
50087;BME280;35967;50.718;7.050;2023-03-11T22:45:59;100451.28;;;1.84;71.69
50087;BME280;35967;50.718;7.050;2023-03-11T22:56:08;100452.19;;;1.91;70.73
50087;BME280;35967;50.718;7.050;2023-03-11T23:06:15;100465.69;;;1.86;71.28
50087;BME280;35967;50.718;7.050;2023-03-11T23:16:20;100456.44;;;1.93;73.18
50087;BME280;35967;50.718;7.050;2023-03-11T23:26:26;100451.47;;;2.04;72.85
50087;BME280;35967;50.718;7.050;2023-03-11T23:36:30;100453.88;;;1.92;74.31
50087;BME280;35967;50.718;7.050;2023-03-11T23:46:34;100457.34;;;2.00;73.74
50087;BME280;35967;50.718;7.050;2023-03-11T23:56:38;100443.88;;;2.05;73.57
